sensor_id;sensor_type;location;lat;lon;timestamp;temperature;humidity
73572;DHT22;61854;48.510;-2.770;2022-11-15T00:00:46;12.40;91.20
73572;DHT22;61854;48.510;-2.770;2022-11-15T00:03:17;12.40;91.40
73572;DHT22;61854;48.510;-2.770;2022-11-15T00:05:44;12.40;91.30
73572;DHT22;61854;48.510;-2.770;2022-11-15T00:08:10;12.40;91.20
73572;DHT22;61854;48.510;-2.770;2022-11-15T00:10:36;12.50;91.30
73572;DHT22;61854;48.510;-2.770;2022-11-15T00:13:10;12.50;91.40
73572;DHT22;61854;48.510;-2.770;2022-11-15T00:15:37;12.60;91.40
73572;DHT22;61854;48.510;-2.770;2022-11-15T00:18:04;12.50;91.60
73572;DHT22;61854;48.510;-2.770;2022-11-15T00:20:30;12.50;91.90
73572;DHT22;61854;48.510;-2.770;2022-11-15T00:22:56;12.40;92.00
73572;DHT22;61854;48.510;-2.770;2022-11-15T00:25:22;12.40;92.10
73572;DHT22;61854;48.510;-2.770;2022-11-15T00:27:47;12.40;92.20
73572;DHT22;61854;48.510;-2.770;2022-11-15T00:30:13;12.40;92.30
73572;DHT22;61854;48.510;-2.770;2022-11-15T00:32:39;12.30;92.20
73572;DHT22;61854;48.510;-2.770;2022-11-15T00:35:04;12.30;92.20
73572;DHT22;61854;48.510;-2.770;2022-11-15T00:37:30;12.40;92.20
73572;DHT22;61854;48.510;-2.770;2022-11-15T00:39:56;12.40;91.90
73572;DHT22;61854;48.510;-2.770;2022-11-15T00:42:21;12.50;91.70
73572;DHT22;61854;48.510;-2.770;2022-11-15T00:44:47;12.40;91.50
73572;DHT22;61854;48.510;-2.770;2022-11-15T00:47:13;12.50;91.60
73572;DHT22;61854;48.510;-2.770;2022-11-15T00:49:38;12.50;91.50
73572;DHT22;61854;48.510;-2.770;2022-11-15T00:52:04;12.50;91.30
73572;DHT22;61854;48.510;-2.770;2022-11-15T00:54:29;12.50;91.20
73572;DHT22;61854;48.510;-2.770;2022-11-15T00:56:55;12.50;91.30
73572;DHT22;61854;48.510;-2.770;2022-11-15T00:59:20;12.60;91.70
73572;DHT22;61854;48.510;-2.770;2022-11-15T01:01:46;12.60;91.20
73572;DHT22;61854;48.510;-2.770;2022-11-15T01:04:11;12.60;91.20
73572;DHT22;61854;48.510;-2.770;2022-11-15T01:06:37;12.60;91.30
73572;DHT22;61854;48.510;-2.770;2022-11-15T01:09:03;12.60;91.30
73572;DHT22;61854;48.510;-2.770;2022-11-15T01:11:28;12.60;91.30
73572;DHT22;61854;48.510;-2.770;2022-11-15T01:13:55;12.60;91.40
73572;DHT22;61854;48.510;-2.770;2022-11-15T01:16:21;12.70;91.30
73572;DHT22;61854;48.510;-2.770;2022-11-15T01:18:46;12.70;91.40
73572;DHT22;61854;48.510;-2.770;2022-11-15T01:21:14;12.70;91.50
73572;DHT22;61854;48.510;-2.770;2022-11-15T01:23:40;12.70;91.50
73572;DHT22;61854;48.510;-2.770;2022-11-15T01:26:10;12.80;91.50
73572;DHT22;61854;48.510;-2.770;2022-11-15T01:28:38;12.80;91.60
73572;DHT22;61854;48.510;-2.770;2022-11-15T01:31:07;12.80;91.60
73572;DHT22;61854;48.510;-2.770;2022-11-15T01:33:35;12.80;91.70
73572;DHT22;61854;48.510;-2.770;2022-11-15T01:36:10;12.80;91.80
73572;DHT22;61854;48.510;-2.770;2022-11-15T01:38:36;12.80;91.80
73572;DHT22;61854;48.510;-2.770;2022-11-15T01:41:02;12.80;91.90
73572;DHT22;61854;48.510;-2.770;2022-11-15T01:43:34;12.80;91.90
73572;DHT22;61854;48.510;-2.770;2022-11-15T01:48:49;12.90;91.90
73572;DHT22;61854;48.510;-2.770;2022-11-15T01:51:17;12.90;91.90
73572;DHT22;61854;48.510;-2.770;2022-11-15T01:53:47;13.00;92.00
73572;DHT22;61854;48.510;-2.770;2022-11-15T01:56:20;13.00;91.90
73572;DHT22;61854;48.510;-2.770;2022-11-15T01:58:46;13.00;92.00
73572;DHT22;61854;48.510;-2.770;2022-11-15T02:01:13;13.00;92.20
73572;DHT22;61854;48.510;-2.770;2022-11-15T02:06:58;12.90;92.50
73572;DHT22;61854;48.510;-2.770;2022-11-15T02:09:25;13.00;92.60
73572;DHT22;61854;48.510;-2.770;2022-11-15T02:11:50;12.90;92.80
73572;DHT22;61854;48.510;-2.770;2022-11-15T02:14:20;12.90;93.20
73572;DHT22;61854;48.510;-2.770;2022-11-15T02:17:02;12.90;93.20
73572;DHT22;61854;48.510;-2.770;2022-11-15T02:25:14;12.80;93.40
73572;DHT22;61854;48.510;-2.770;2022-11-15T02:30:54;12.90;93.00
73572;DHT22;61854;48.510;-2.770;2022-11-15T02:41:14;12.90;93.70
73572;DHT22;61854;48.510;-2.770;2022-11-15T02:44:02;12.90;93.90
73572;DHT22;61854;48.510;-2.770;2022-11-15T02:46:41;12.80;94.10
73572;DHT22;61854;48.510;-2.770;2022-11-15T02:49:30;12.80;94.30
73572;DHT22;61854;48.510;-2.770;2022-11-15T02:51:57;12.80;94.30
73572;DHT22;61854;48.510;-2.770;2022-11-15T02:54:29;12.80;94.40
73572;DHT22;61854;48.510;-2.770;2022-11-15T02:57:02;12.80;94.60
73572;DHT22;61854;48.510;-2.770;2022-11-15T02:59:59;12.80;94.70
73572;DHT22;61854;48.510;-2.770;2022-11-15T03:08:31;12.80;95.30
73572;DHT22;61854;48.510;-2.770;2022-11-15T03:11:09;12.70;95.50
73572;DHT22;61854;48.510;-2.770;2022-11-15T03:16:44;12.70;95.70
73572;DHT22;61854;48.510;-2.770;2022-11-15T03:19:34;12.70;95.90
73572;DHT22;61854;48.510;-2.770;2022-11-15T03:22:03;12.70;96.00
73572;DHT22;61854;48.510;-2.770;2022-11-15T03:24:31;12.70;96.10
73572;DHT22;61854;48.510;-2.770;2022-11-15T03:26:59;12.70;96.10
73572;DHT22;61854;48.510;-2.770;2022-11-15T03:29:39;12.70;96.20
73572;DHT22;61854;48.510;-2.770;2022-11-15T03:32:12;12.70;96.40
73572;DHT22;61854;48.510;-2.770;2022-11-15T03:40:47;12.70;96.40
73572;DHT22;61854;48.510;-2.770;2022-11-15T03:43:30;12.60;96.70
73572;DHT22;61854;48.510;-2.770;2022-11-15T03:46:02;12.60;96.60
73572;DHT22;61854;48.510;-2.770;2022-11-15T03:48:39;12.60;96.80
73572;DHT22;61854;48.510;-2.770;2022-11-15T03:51:07;12.60;96.90
73572;DHT22;61854;48.510;-2.770;2022-11-15T03:53:33;12.60;96.80
73572;DHT22;61854;48.510;-2.770;2022-11-15T03:55:58;12.60;97.00
73572;DHT22;61854;48.510;-2.770;2022-11-15T03:58:24;12.60;97.10
73572;DHT22;61854;48.510;-2.770;2022-11-15T04:00:50;12.60;97.10
73572;DHT22;61854;48.510;-2.770;2022-11-15T04:03:15;12.60;97.30
73572;DHT22;61854;48.510;-2.770;2022-11-15T04:05:41;12.60;97.30
73572;DHT22;61854;48.510;-2.770;2022-11-15T04:08:06;12.60;97.30
73572;DHT22;61854;48.510;-2.770;2022-11-15T04:10:32;12.60;97.30
73572;DHT22;61854;48.510;-2.770;2022-11-15T04:12:57;12.60;97.40
73572;DHT22;61854;48.510;-2.770;2022-11-15T04:15:24;12.60;97.50
73572;DHT22;61854;48.510;-2.770;2022-11-15T04:17:52;12.60;97.50
73572;DHT22;61854;48.510;-2.770;2022-11-15T04:20:22;12.60;97.50
73572;DHT22;61854;48.510;-2.770;2022-11-15T04:23:18;12.70;97.40
73572;DHT22;61854;48.510;-2.770;2022-11-15T04:26:08;12.70;97.30
73572;DHT22;61854;48.510;-2.770;2022-11-15T04:28:35;12.60;97.40
73572;DHT22;61854;48.510;-2.770;2022-11-15T04:31:21;12.60;97.40
73572;DHT22;61854;48.510;-2.770;2022-11-15T04:33:46;12.70;97.40
73572;DHT22;61854;48.510;-2.770;2022-11-15T04:36:12;12.70;97.40
73572;DHT22;61854;48.510;-2.770;2022-11-15T04:38:56;12.70;97.30
73572;DHT22;61854;48.510;-2.770;2022-11-15T04:41:22;12.70;97.30
73572;DHT22;61854;48.510;-2.770;2022-11-15T04:43:47;12.60;97.30
73572;DHT22;61854;48.510;-2.770;2022-11-15T04:46:13;12.60;97.50
73572;DHT22;61854;48.510;-2.770;2022-11-15T04:48:38;12.70;97.50
73572;DHT22;61854;48.510;-2.770;2022-11-15T04:51:04;12.70;97.40
73572;DHT22;61854;48.510;-2.770;2022-11-15T04:53:30;12.70;97.40
73572;DHT22;61854;48.510;-2.770;2022-11-15T04:55:55;12.70;97.40
73572;DHT22;61854;48.510;-2.770;2022-11-15T04:58:24;12.70;97.50
73572;DHT22;61854;48.510;-2.770;2022-11-15T05:00:49;12.60;97.50
73572;DHT22;61854;48.510;-2.770;2022-11-15T05:03:15;12.60;97.50
73572;DHT22;61854;48.510;-2.770;2022-11-15T05:05:59;12.60;97.60
73572;DHT22;61854;48.510;-2.770;2022-11-15T05:08:25;12.60;97.70
73572;DHT22;61854;48.510;-2.770;2022-11-15T05:10:51;12.60;97.70
73572;DHT22;61854;48.510;-2.770;2022-11-15T05:13:17;12.60;97.80
73572;DHT22;61854;48.510;-2.770;2022-11-15T05:15:42;12.60;97.80
73572;DHT22;61854;48.510;-2.770;2022-11-15T05:18:08;12.60;97.90
73572;DHT22;61854;48.510;-2.770;2022-11-15T05:20:33;12.60;97.90
73572;DHT22;61854;48.510;-2.770;2022-11-15T05:22:59;12.60;97.90
73572;DHT22;61854;48.510;-2.770;2022-11-15T05:25:25;12.60;97.90
73572;DHT22;61854;48.510;-2.770;2022-11-15T05:27:51;12.60;98.00
73572;DHT22;61854;48.510;-2.770;2022-11-15T05:30:16;12.60;98.00
73572;DHT22;61854;48.510;-2.770;2022-11-15T05:32:43;12.70;98.00
73572;DHT22;61854;48.510;-2.770;2022-11-15T05:35:13;12.60;97.90
73572;DHT22;61854;48.510;-2.770;2022-11-15T05:37:41;12.60;98.00
73572;DHT22;61854;48.510;-2.770;2022-11-15T05:40:07;12.70;98.00
73572;DHT22;61854;48.510;-2.770;2022-11-15T05:42:33;12.70;98.10
73572;DHT22;61854;48.510;-2.770;2022-11-15T05:44:59;12.70;98.00
73572;DHT22;61854;48.510;-2.770;2022-11-15T05:47:27;12.70;98.00
73572;DHT22;61854;48.510;-2.770;2022-11-15T05:49:54;12.70;98.20
73572;DHT22;61854;48.510;-2.770;2022-11-15T05:52:23;12.70;98.10
73572;DHT22;61854;48.510;-2.770;2022-11-15T05:54:50;12.70;98.10
73572;DHT22;61854;48.510;-2.770;2022-11-15T05:57:17;12.60;98.00
73572;DHT22;61854;48.510;-2.770;2022-11-15T05:59:42;12.70;98.00
73572;DHT22;61854;48.510;-2.770;2022-11-15T06:02:09;12.60;98.10
73572;DHT22;61854;48.510;-2.770;2022-11-15T06:04:35;12.70;98.00
73572;DHT22;61854;48.510;-2.770;2022-11-15T06:07:01;12.60;98.10
73572;DHT22;61854;48.510;-2.770;2022-11-15T06:09:27;12.60;98.20
73572;DHT22;61854;48.510;-2.770;2022-11-15T06:11:52;12.70;98.30
73572;DHT22;61854;48.510;-2.770;2022-11-15T06:14:18;12.60;98.30
73572;DHT22;61854;48.510;-2.770;2022-11-15T06:16:44;12.60;98.20
73572;DHT22;61854;48.510;-2.770;2022-11-15T06:19:09;12.60;98.40
73572;DHT22;61854;48.510;-2.770;2022-11-15T06:21:35;12.60;98.40
73572;DHT22;61854;48.510;-2.770;2022-11-15T06:24:00;12.60;98.40
73572;DHT22;61854;48.510;-2.770;2022-11-15T06:26:26;12.60;98.40
73572;DHT22;61854;48.510;-2.770;2022-11-15T06:28:52;12.60;98.40
73572;DHT22;61854;48.510;-2.770;2022-11-15T06:31:17;12.70;98.30
73572;DHT22;61854;48.510;-2.770;2022-11-15T06:33:43;12.70;98.50
73572;DHT22;61854;48.510;-2.770;2022-11-15T06:36:11;12.70;98.40
73572;DHT22;61854;48.510;-2.770;2022-11-15T06:38:39;12.70;98.50
73572;DHT22;61854;48.510;-2.770;2022-11-15T06:41:07;12.70;98.50
73572;DHT22;61854;48.510;-2.770;2022-11-15T06:43:33;12.70;98.40
73572;DHT22;61854;48.510;-2.770;2022-11-15T06:46:00;12.70;98.50
73572;DHT22;61854;48.510;-2.770;2022-11-15T06:48:27;12.70;99.00
73572;DHT22;61854;48.510;-2.770;2022-11-15T06:50:53;12.70;98.60
73572;DHT22;61854;48.510;-2.770;2022-11-15T06:53:19;12.70;98.60
73572;DHT22;61854;48.510;-2.770;2022-11-15T06:55:45;12.70;98.70
73572;DHT22;61854;48.510;-2.770;2022-11-15T06:58:11;12.70;98.80
73572;DHT22;61854;48.510;-2.770;2022-11-15T07:00:36;12.80;98.90
73572;DHT22;61854;48.510;-2.770;2022-11-15T07:03:03;12.80;98.90
73572;DHT22;61854;48.510;-2.770;2022-11-15T07:05:29;12.80;99.00
73572;DHT22;61854;48.510;-2.770;2022-11-15T07:07:56;12.90;99.00
73572;DHT22;61854;48.510;-2.770;2022-11-15T07:10:22;12.90;99.00
73572;DHT22;61854;48.510;-2.770;2022-11-15T07:12:50;12.90;99.00
73572;DHT22;61854;48.510;-2.770;2022-11-15T07:15:17;12.90;99.00
73572;DHT22;61854;48.510;-2.770;2022-11-15T07:17:43;13.00;99.00
73572;DHT22;61854;48.510;-2.770;2022-11-15T07:20:09;13.00;99.00
73572;DHT22;61854;48.510;-2.770;2022-11-15T07:22:35;13.10;98.90
73572;DHT22;61854;48.510;-2.770;2022-11-15T07:25:01;13.20;98.80
73572;DHT22;61854;48.510;-2.770;2022-11-15T07:27:26;13.20;98.90
73572;DHT22;61854;48.510;-2.770;2022-11-15T07:29:52;13.30;98.70
73572;DHT22;61854;48.510;-2.770;2022-11-15T07:32:18;13.40;98.60
73572;DHT22;61854;48.510;-2.770;2022-11-15T07:34:43;13.40;98.50
73572;DHT22;61854;48.510;-2.770;2022-11-15T07:37:11;13.40;98.70
73572;DHT22;61854;48.510;-2.770;2022-11-15T07:39:37;13.40;98.60
73572;DHT22;61854;48.510;-2.770;2022-11-15T07:42:03;13.40;98.60
73572;DHT22;61854;48.510;-2.770;2022-11-15T07:44:47;13.50;98.60
73572;DHT22;61854;48.510;-2.770;2022-11-15T07:47:13;13.50;98.70
73572;DHT22;61854;48.510;-2.770;2022-11-15T07:49:38;13.50;98.70
73572;DHT22;61854;48.510;-2.770;2022-11-15T07:52:04;13.50;98.60
73572;DHT22;61854;48.510;-2.770;2022-11-15T07:54:29;13.50;98.80
73572;DHT22;61854;48.510;-2.770;2022-11-15T07:56:55;13.50;98.90
73572;DHT22;61854;48.510;-2.770;2022-11-15T07:59:21;13.50;99.00
73572;DHT22;61854;48.510;-2.770;2022-11-15T08:01:46;13.50;99.10
73572;DHT22;61854;48.510;-2.770;2022-11-15T08:04:12;13.60;99.20
73572;DHT22;61854;48.510;-2.770;2022-11-15T08:06:38;13.60;99.10
73572;DHT22;61854;48.510;-2.770;2022-11-15T08:09:04;13.50;99.10
73572;DHT22;61854;48.510;-2.770;2022-11-15T08:11:29;13.50;99.20
73572;DHT22;61854;48.510;-2.770;2022-11-15T08:13:55;13.50;99.20
73572;DHT22;61854;48.510;-2.770;2022-11-15T08:16:21;13.50;99.30
73572;DHT22;61854;48.510;-2.770;2022-11-15T08:18:46;13.50;99.40
73572;DHT22;61854;48.510;-2.770;2022-11-15T08:21:16;13.60;99.40
73572;DHT22;61854;48.510;-2.770;2022-11-15T08:23:43;13.60;99.40
73572;DHT22;61854;48.510;-2.770;2022-11-15T08:26:09;13.60;99.40
73572;DHT22;61854;48.510;-2.770;2022-11-15T08:28:35;13.40;98.00
73572;DHT22;61854;48.510;-2.770;2022-11-15T08:31:04;13.30;97.90
73572;DHT22;61854;48.510;-2.770;2022-11-15T08:33:30;13.10;97.90
73572;DHT22;61854;48.510;-2.770;2022-11-15T08:36:00;13.00;97.40
73572;DHT22;61854;48.510;-2.770;2022-11-15T08:38:26;12.80;97.30
73572;DHT22;61854;48.510;-2.770;2022-11-15T08:41:00;12.80;97.40
73572;DHT22;61854;48.510;-2.770;2022-11-15T08:43:26;12.70;97.30
73572;DHT22;61854;48.510;-2.770;2022-11-15T08:45:51;12.60;97.20
73572;DHT22;61854;48.510;-2.770;2022-11-15T08:48:20;12.50;97.20
73572;DHT22;61854;48.510;-2.770;2022-11-15T08:50:46;12.40;97.20
73572;DHT22;61854;48.510;-2.770;2022-11-15T08:53:12;12.40;97.40
73572;DHT22;61854;48.510;-2.770;2022-11-15T08:55:39;12.30;97.60
73572;DHT22;61854;48.510;-2.770;2022-11-15T08:58:05;12.30;97.70
73572;DHT22;61854;48.510;-2.770;2022-11-15T09:00:30;12.30;97.50
73572;DHT22;61854;48.510;-2.770;2022-11-15T09:02:56;12.30;97.60
73572;DHT22;61854;48.510;-2.770;2022-11-15T09:05:22;12.30;97.80
73572;DHT22;61854;48.510;-2.770;2022-11-15T09:07:52;12.20;97.60
73572;DHT22;61854;48.510;-2.770;2022-11-15T09:10:17;12.20;97.60
73572;DHT22;61854;48.510;-2.770;2022-11-15T09:12:43;12.20;97.60
73572;DHT22;61854;48.510;-2.770;2022-11-15T09:15:09;12.10;97.60
73572;DHT22;61854;48.510;-2.770;2022-11-15T09:17:34;12.10;97.60
73572;DHT22;61854;48.510;-2.770;2022-11-15T09:20:00;12.20;97.90
73572;DHT22;61854;48.510;-2.770;2022-11-15T09:22:26;12.20;97.70
73572;DHT22;61854;48.510;-2.770;2022-11-15T09:24:51;12.20;97.70
73572;DHT22;61854;48.510;-2.770;2022-11-15T09:27:17;12.30;97.50
73572;DHT22;61854;48.510;-2.770;2022-11-15T09:29:42;12.40;97.30
73572;DHT22;61854;48.510;-2.770;2022-11-15T09:32:09;12.40;97.10
73572;DHT22;61854;48.510;-2.770;2022-11-15T09:34:34;12.40;96.90
73572;DHT22;61854;48.510;-2.770;2022-11-15T09:37:00;12.30;96.90
73572;DHT22;61854;48.510;-2.770;2022-11-15T09:39:25;12.40;96.60
73572;DHT22;61854;48.510;-2.770;2022-11-15T09:49:59;12.60;96.30
73572;DHT22;61854;48.510;-2.770;2022-11-15T09:52:27;12.60;96.20
73572;DHT22;61854;48.510;-2.770;2022-11-15T09:54:53;12.60;96.20
73572;DHT22;61854;48.510;-2.770;2022-11-15T09:57:50;12.70;96.30
73572;DHT22;61854;48.510;-2.770;2022-11-15T10:00:31;12.70;96.20
73572;DHT22;61854;48.510;-2.770;2022-11-15T10:05:26;12.80;96.30
73572;DHT22;61854;48.510;-2.770;2022-11-15T10:08:05;12.80;96.00
73572;DHT22;61854;48.510;-2.770;2022-11-15T10:10:41;12.80;95.70
73572;DHT22;61854;48.510;-2.770;2022-11-15T10:13:24;12.90;95.50
73572;DHT22;61854;48.510;-2.770;2022-11-15T10:15:53;12.90;95.60
73572;DHT22;61854;48.510;-2.770;2022-11-15T10:18:42;13.00;95.80
73572;DHT22;61854;48.510;-2.770;2022-11-15T10:21:18;13.10;95.40
73572;DHT22;61854;48.510;-2.770;2022-11-15T10:26:15;13.30;94.00
73572;DHT22;61854;48.510;-2.770;2022-11-15T10:28:41;13.40;94.50
73572;DHT22;61854;48.510;-2.770;2022-11-15T10:31:28;13.50;94.60
73572;DHT22;61854;48.510;-2.770;2022-11-15T10:34:16;13.60;94.10
73572;DHT22;61854;48.510;-2.770;2022-11-15T10:37:00;13.70;93.40
73572;DHT22;61854;48.510;-2.770;2022-11-15T10:39:29;13.70;93.20
73572;DHT22;61854;48.510;-2.770;2022-11-15T10:41:55;13.70;92.90
73572;DHT22;61854;48.510;-2.770;2022-11-15T10:44:30;13.70;92.90
73572;DHT22;61854;48.510;-2.770;2022-11-15T10:49:29;13.70;92.40
73572;DHT22;61854;48.510;-2.770;2022-11-15T10:57:37;13.60;92.40
73572;DHT22;61854;48.510;-2.770;2022-11-15T11:05:35;13.80;92.80
73572;DHT22;61854;48.510;-2.770;2022-11-15T11:10:39;13.90;91.20
73572;DHT22;61854;48.510;-2.770;2022-11-15T11:16:09;13.90;91.90
73572;DHT22;61854;48.510;-2.770;2022-11-15T11:19:04;13.80;91.30
73572;DHT22;61854;48.510;-2.770;2022-11-15T11:24:33;13.70;91.60
73572;DHT22;61854;48.510;-2.770;2022-11-15T11:35:18;13.70;91.90
73572;DHT22;61854;48.510;-2.770;2022-11-15T11:40:44;13.90;92.00
73572;DHT22;61854;48.510;-2.770;2022-11-15T11:43:37;14.10;91.90
73572;DHT22;61854;48.510;-2.770;2022-11-15T11:49:09;14.50;87.30
73572;DHT22;61854;48.510;-2.770;2022-11-15T11:51:43;14.60;88.20
73572;DHT22;61854;48.510;-2.770;2022-11-15T11:54:36;14.70;87.50
73572;DHT22;61854;48.510;-2.770;2022-11-15T11:57:09;14.70;87.80
73572;DHT22;61854;48.510;-2.770;2022-11-15T11:59:56;14.60;85.30
73572;DHT22;61854;48.510;-2.770;2022-11-15T12:02:35;14.50;86.40
73572;DHT22;61854;48.510;-2.770;2022-11-15T12:07:46;14.30;87.30
73572;DHT22;61854;48.510;-2.770;2022-11-15T12:10:24;14.30;87.60
73572;DHT22;61854;48.510;-2.770;2022-11-15T12:12:58;14.20;87.30
73572;DHT22;61854;48.510;-2.770;2022-11-15T12:15:30;14.10;87.30
73572;DHT22;61854;48.510;-2.770;2022-11-15T12:17:59;14.00;86.80
73572;DHT22;61854;48.510;-2.770;2022-11-15T12:20:27;14.00;88.90
73572;DHT22;61854;48.510;-2.770;2022-11-15T12:22:58;14.00;88.80
73572;DHT22;61854;48.510;-2.770;2022-11-15T12:25:35;14.00;88.00
73572;DHT22;61854;48.510;-2.770;2022-11-15T12:33:37;14.20;87.70
73572;DHT22;61854;48.510;-2.770;2022-11-15T12:36:08;14.30;85.00
73572;DHT22;61854;48.510;-2.770;2022-11-15T12:38:54;14.20;85.80
73572;DHT22;61854;48.510;-2.770;2022-11-15T12:41:22;14.20;85.50
73572;DHT22;61854;48.510;-2.770;2022-11-15T12:43:48;14.20;85.40
73572;DHT22;61854;48.510;-2.770;2022-11-15T13:02:42;14.40;87.00
73572;DHT22;61854;48.510;-2.770;2022-11-15T13:17:49;14.60;84.40
73572;DHT22;61854;48.510;-2.770;2022-11-15T13:22:52;14.40;81.40
73572;DHT22;61854;48.510;-2.770;2022-11-15T13:25:48;14.30;80.50
73572;DHT22;61854;48.510;-2.770;2022-11-15T13:33:39;13.90;78.60
73572;DHT22;61854;48.510;-2.770;2022-11-15T13:36:14;14.10;79.80
73572;DHT22;61854;48.510;-2.770;2022-11-15T13:38:41;13.90;80.00
73572;DHT22;61854;48.510;-2.770;2022-11-15T13:41:17;13.80;81.00
73572;DHT22;61854;48.510;-2.770;2022-11-15T13:43:44;13.70;80.70
73572;DHT22;61854;48.510;-2.770;2022-11-15T13:48:39;14.40;79.00
73572;DHT22;61854;48.510;-2.770;2022-11-15T13:51:14;14.70;78.70
73572;DHT22;61854;48.510;-2.770;2022-11-15T13:53:44;14.70;77.40
73572;DHT22;61854;48.510;-2.770;2022-11-15T13:56:13;14.40;74.70
73572;DHT22;61854;48.510;-2.770;2022-11-15T13:58:39;15.00;73.00
73572;DHT22;61854;48.510;-2.770;2022-11-15T14:01:05;15.90;69.80
73572;DHT22;61854;48.510;-2.770;2022-11-15T14:03:34;16.50;66.00
73572;DHT22;61854;48.510;-2.770;2022-11-15T14:06:09;17.00;65.20
73572;DHT22;61854;48.510;-2.770;2022-11-15T14:08:39;17.30;60.70
73572;DHT22;61854;48.510;-2.770;2022-11-15T14:16:37;17.50;60.60
73572;DHT22;61854;48.510;-2.770;2022-11-15T14:19:04;17.90;59.60
73572;DHT22;61854;48.510;-2.770;2022-11-15T14:21:31;17.90;60.10
73572;DHT22;61854;48.510;-2.770;2022-11-15T14:24:19;17.80;58.90
73572;DHT22;61854;48.510;-2.770;2022-11-15T14:26:45;17.90;59.60
73572;DHT22;61854;48.510;-2.770;2022-11-15T14:29:28;18.00;58.90
73572;DHT22;61854;48.510;-2.770;2022-11-15T14:32:11;18.10;59.00
73572;DHT22;61854;48.510;-2.770;2022-11-15T14:34:38;18.10;58.00
73572;DHT22;61854;48.510;-2.770;2022-11-15T14:37:03;17.90;59.70
73572;DHT22;61854;48.510;-2.770;2022-11-15T14:39:29;17.90;60.20
73572;DHT22;61854;48.510;-2.770;2022-11-15T14:41:54;18.00;59.70
73572;DHT22;61854;48.510;-2.770;2022-11-15T14:44:20;18.10;59.50
73572;DHT22;61854;48.510;-2.770;2022-11-15T14:46:47;18.20;59.50
73572;DHT22;61854;48.510;-2.770;2022-11-15T14:49:14;18.20;59.00
73572;DHT22;61854;48.510;-2.770;2022-11-15T14:51:40;18.30;59.30
73572;DHT22;61854;48.510;-2.770;2022-11-15T14:54:10;18.20;59.00
73572;DHT22;61854;48.510;-2.770;2022-11-15T14:56:35;17.30;59.50
73572;DHT22;61854;48.510;-2.770;2022-11-15T14:59:01;16.60;62.60
73572;DHT22;61854;48.510;-2.770;2022-11-15T15:01:27;16.10;63.60
73572;DHT22;61854;48.510;-2.770;2022-11-15T15:03:53;15.40;64.60
73572;DHT22;61854;48.510;-2.770;2022-11-15T15:06:22;14.90;66.20
73572;DHT22;61854;48.510;-2.770;2022-11-15T15:08:48;15.10;66.10
73572;DHT22;61854;48.510;-2.770;2022-11-15T15:11:26;15.90;66.10
73572;DHT22;61854;48.510;-2.770;2022-11-15T15:13:54;16.50;62.20
73572;DHT22;61854;48.510;-2.770;2022-11-15T15:16:22;16.80;61.00
73572;DHT22;61854;48.510;-2.770;2022-11-15T15:18:48;16.90;61.00
73572;DHT22;61854;48.510;-2.770;2022-11-15T15:21:20;16.30;60.70
73572;DHT22;61854;48.510;-2.770;2022-11-15T15:23:47;15.40;62.70
73572;DHT22;61854;48.510;-2.770;2022-11-15T15:26:14;14.60;66.20
73572;DHT22;61854;48.510;-2.770;2022-11-15T15:28:40;13.90;67.80
73572;DHT22;61854;48.510;-2.770;2022-11-15T15:31:05;13.60;69.40
73572;DHT22;61854;48.510;-2.770;2022-11-15T15:33:31;13.30;71.10
73572;DHT22;61854;48.510;-2.770;2022-11-15T15:35:57;13.10;71.60
73572;DHT22;61854;48.510;-2.770;2022-11-15T15:38:23;13.00;72.90
73572;DHT22;61854;48.510;-2.770;2022-11-15T15:40:48;12.90;72.50
73572;DHT22;61854;48.510;-2.770;2022-11-15T15:43:14;12.80;71.90
73572;DHT22;61854;48.510;-2.770;2022-11-15T15:45:41;12.80;71.80
73572;DHT22;61854;48.510;-2.770;2022-11-15T15:48:14;12.80;71.80
73572;DHT22;61854;48.510;-2.770;2022-11-15T15:50:40;12.70;72.40
73572;DHT22;61854;48.510;-2.770;2022-11-15T15:53:08;12.70;72.50
73572;DHT22;61854;48.510;-2.770;2022-11-15T15:55:36;12.70;73.00
73572;DHT22;61854;48.510;-2.770;2022-11-15T15:58:02;12.70;73.30
73572;DHT22;61854;48.510;-2.770;2022-11-15T16:00:28;12.70;73.30
73572;DHT22;61854;48.510;-2.770;2022-11-15T16:02:54;12.60;73.90
73572;DHT22;61854;48.510;-2.770;2022-11-15T16:05:20;12.60;74.00
73572;DHT22;61854;48.510;-2.770;2022-11-15T16:07:46;12.60;73.90
73572;DHT22;61854;48.510;-2.770;2022-11-15T16:12:41;12.50;74.20
73572;DHT22;61854;48.510;-2.770;2022-11-15T16:15:07;12.50;74.30
73572;DHT22;61854;48.510;-2.770;2022-11-15T16:17:35;12.40;73.90
73572;DHT22;61854;48.510;-2.770;2022-11-15T16:20:02;12.30;74.50
73572;DHT22;61854;48.510;-2.770;2022-11-15T16:22:28;12.20;74.60
73572;DHT22;61854;48.510;-2.770;2022-11-15T16:24:54;12.20;75.10
73572;DHT22;61854;48.510;-2.770;2022-11-15T16:27:21;12.10;75.10
73572;DHT22;61854;48.510;-2.770;2022-11-15T16:29:47;12.00;75.60
73572;DHT22;61854;48.510;-2.770;2022-11-15T16:32:14;12.00;75.80
73572;DHT22;61854;48.510;-2.770;2022-11-15T16:34:40;11.90;75.50
73572;DHT22;61854;48.510;-2.770;2022-11-15T16:37:13;11.80;75.90
73572;DHT22;61854;48.510;-2.770;2022-11-15T16:39:44;11.80;75.90
73572;DHT22;61854;48.510;-2.770;2022-11-15T16:42:09;11.70;76.30
73572;DHT22;61854;48.510;-2.770;2022-11-15T16:44:35;11.70;76.90
73572;DHT22;61854;48.510;-2.770;2022-11-15T16:47:01;11.70;76.50
73572;DHT22;61854;48.510;-2.770;2022-11-15T16:49:27;11.60;76.90
73572;DHT22;61854;48.510;-2.770;2022-11-15T16:51:52;11.50;77.80
73572;DHT22;61854;48.510;-2.770;2022-11-15T16:54:18;11.50;77.70
73572;DHT22;61854;48.510;-2.770;2022-11-15T16:56:44;11.40;78.30
73572;DHT22;61854;48.510;-2.770;2022-11-15T16:59:14;11.40;78.60
73572;DHT22;61854;48.510;-2.770;2022-11-15T17:01:42;11.30;78.60
73572;DHT22;61854;48.510;-2.770;2022-11-15T17:04:17;11.30;79.60
73572;DHT22;61854;48.510;-2.770;2022-11-15T17:06:45;11.30;80.00
73572;DHT22;61854;48.510;-2.770;2022-11-15T17:09:20;11.30;80.20
73572;DHT22;61854;48.510;-2.770;2022-11-15T17:11:48;11.20;80.40
73572;DHT22;61854;48.510;-2.770;2022-11-15T17:14:15;11.20;80.70
73572;DHT22;61854;48.510;-2.770;2022-11-15T17:16:42;11.10;81.50
73572;DHT22;61854;48.510;-2.770;2022-11-15T17:19:34;11.10;81.50
73572;DHT22;61854;48.510;-2.770;2022-11-15T17:22:00;11.00;81.90
73572;DHT22;61854;48.510;-2.770;2022-11-15T17:24:26;11.00;82.20
73572;DHT22;61854;48.510;-2.770;2022-11-15T17:26:51;11.00;82.30
73572;DHT22;61854;48.510;-2.770;2022-11-15T17:29:17;11.00;82.30
73572;DHT22;61854;48.510;-2.770;2022-11-15T17:31:42;11.00;82.40
73572;DHT22;61854;48.510;-2.770;2022-11-15T17:34:10;11.00;82.10
73572;DHT22;61854;48.510;-2.770;2022-11-15T17:36:35;10.90;82.50
73572;DHT22;61854;48.510;-2.770;2022-11-15T17:39:02;10.90;82.70
73572;DHT22;61854;48.510;-2.770;2022-11-15T17:41:29;10.90;83.00
73572;DHT22;61854;48.510;-2.770;2022-11-15T17:43:56;10.90;83.30
73572;DHT22;61854;48.510;-2.770;2022-11-15T17:46:24;10.80;83.50
73572;DHT22;61854;48.510;-2.770;2022-11-15T17:48:50;10.80;84.00